sensor_id;sensor_type;location;lat;lon;timestamp;pressure;altitude;pressure_sealevel;temperature;humidity
20027;BME280;10174;42.688;23.344;2023-08-07T00:02:05;94756.41;;;17.22;84.23
20027;BME280;10174;42.688;23.344;2023-08-07T00:04:32;94720.50;;;16.99;84.53
20027;BME280;10174;42.688;23.344;2023-08-07T00:06:57;94743.81;;;17.17;83.86
20027;BME280;10174;42.688;23.344;2023-08-07T00:09:22;94751.63;;;17.27;83.61
20027;BME280;10174;42.688;23.344;2023-08-07T00:11:48;94758.81;;;17.23;83.29
20027;BME280;10174;42.688;23.344;2023-08-07T00:14:13;94700.34;;;16.82;83.74
20027;BME280;10174;42.688;23.344;2023-08-07T00:16:39;94740.13;;;17.04;83.80
20027;BME280;10174;42.688;23.344;2023-08-07T00:19:04;94752.75;;;17.09;83.44
20027;BME280;10174;42.688;23.344;2023-08-07T00:21:30;94772.06;;;17.34;84.06
20027;BME280;10174;42.688;23.344;2023-08-07T00:23:55;94771.13;;;17.38;82.54
20027;BME280;10174;42.688;23.344;2023-08-07T00:26:20;94773.03;;;17.38;82.60
20027;BME280;10174;42.688;23.344;2023-08-07T00:28:46;94764.25;;;17.41;82.62
20027;BME280;10174;42.688;23.344;2023-08-07T00:31:11;94755.78;;;17.34;81.70
20027;BME280;10174;42.688;23.344;2023-08-07T00:33:37;94777.97;;;17.36;82.22
20027;BME280;10174;42.688;23.344;2023-08-07T00:36:03;94777.34;;;17.30;82.22
20027;BME280;10174;42.688;23.344;2023-08-07T00:38:29;94755.78;;;17.16;82.41
20027;BME280;10174;42.688;23.344;2023-08-07T00:40:54;94782.28;;;17.28;82.43
20027;BME280;10174;42.688;23.344;2023-08-07T00:43:19;94749.53;;;17.07;83.10
20027;BME280;10174;42.688;23.344;2023-08-07T00:45:46;94793.94;;;17.20;83.13
20027;BME280;10174;42.688;23.344;2023-08-07T00:48:12;94692.16;;;16.56;83.35
20027;BME280;10174;42.688;23.344;2023-08-07T00:50:39;94783.06;;;17.11;83.96
20027;BME280;10174;42.688;23.344;2023-08-07T00:53:06;94788.97;;;17.04;83.39
20027;BME280;10174;42.688;23.344;2023-08-07T00:55:32;94800.22;;;16.80;84.44
20027;BME280;10174;42.688;23.344;2023-08-07T00:57:58;94797.88;;;16.87;85.00
20027;BME280;10174;42.688;23.344;2023-08-07T01:00:24;94683.78;;;16.17;84.90
20027;BME280;10174;42.688;23.344;2023-08-07T01:02:50;94791.75;;;16.82;84.78
20027;BME280;10174;42.688;23.344;2023-08-07T01:05:17;94816.25;;;16.90;84.76
20027;BME280;10174;42.688;23.344;2023-08-07T01:07:45;94808.81;;;16.82;84.78
20027;BME280;10174;42.688;23.344;2023-08-07T01:10:10;94821.47;;;16.87;85.57
20027;BME280;10174;42.688;23.344;2023-08-07T01:12:45;94800.03;;;16.68;86.11
20027;BME280;10174;42.688;23.344;2023-08-07T01:15:16;94829.88;;;16.77;86.17
20027;BME280;10174;42.688;23.344;2023-08-07T01:17:44;94825.53;;;16.67;87.06
20027;BME280;10174;42.688;23.344;2023-08-07T01:20:11;94748.28;;;16.15;87.43
20027;BME280;10174;42.688;23.344;2023-08-07T01:22:37;94824.06;;;16.61;87.25
20027;BME280;10174;42.688;23.344;2023-08-07T01:25:02;94827.56;;;16.52;88.40
20027;BME280;10174;42.688;23.344;2023-08-07T01:28:02;94828.72;;;16.60;88.97
20027;BME280;10174;42.688;23.344;2023-08-07T01:30:40;94826.22;;;16.41;89.45
20027;BME280;10174;42.688;23.344;2023-08-07T01:35:35;94712.78;;;15.85;89.05
20027;BME280;10174;42.688;23.344;2023-08-07T01:38:03;94806.44;;;16.41;90.01
20027;BME280;10174;42.688;23.344;2023-08-07T01:40:29;94794.47;;;16.33;89.70
20027;BME280;10174;42.688;23.344;2023-08-07T01:42:56;94821.78;;;16.45;89.83
20027;BME280;10174;42.688;23.344;2023-08-07T01:45:25;94801.28;;;16.30;90.04
20027;BME280;10174;42.688;23.344;2023-08-07T01:47:51;94685.84;;;15.58;90.74
20027;BME280;10174;42.688;23.344;2023-08-07T01:50:18;94796.69;;;16.31;90.33
20027;BME280;10174;42.688;23.344;2023-08-07T01:52:43;94814.13;;;16.47;90.10
20027;BME280;10174;42.688;23.344;2023-08-07T01:55:09;94788.63;;;16.17;90.93
20027;BME280;10174;42.688;23.344;2023-08-07T01:57:34;94776.31;;;16.11;90.98
20027;BME280;10174;42.688;23.344;2023-08-07T02:00:00;94788.69;;;16.26;90.93
20027;BME280;10174;42.688;23.344;2023-08-07T02:02:25;94815.25;;;16.46;90.28
20027;BME280;10174;42.688;23.344;2023-08-07T02:04:50;94829.44;;;16.43;89.99
20027;BME280;10174;42.688;23.344;2023-08-07T02:07:16;94810.25;;;16.31;89.80
20027;BME280;10174;42.688;23.344;2023-08-07T02:09:41;94810.19;;;16.22;90.24
20027;BME280;10174;42.688;23.344;2023-08-07T02:12:07;94816.88;;;16.25;90.68
20027;BME280;10174;42.688;23.344;2023-08-07T02:14:33;94714.78;;;15.48;90.52
20027;BME280;10174;42.688;23.344;2023-08-07T02:16:58;94832.44;;;16.42;90.59
20027;BME280;10174;42.688;23.344;2023-08-07T02:19:24;94809.06;;;16.23;90.15
20027;BME280;10174;42.688;23.344;2023-08-07T02:21:49;94840.50;;;16.55;89.99
20027;BME280;10174;42.688;23.344;2023-08-07T02:24:14;94818.59;;;16.43;89.48
20027;BME280;10174;42.688;23.344;2023-08-07T02:26:40;94824.63;;;16.40;90.17
20027;BME280;10174;42.688;23.344;2023-08-07T02:29:05;94851.97;;;16.52;89.54
20027;BME280;10174;42.688;23.344;2023-08-07T02:31:32;94845.69;;;16.43;90.45
20027;BME280;10174;42.688;23.344;2023-08-07T02:33:57;94853.69;;;16.48;90.00
20027;BME280;10174;42.688;23.344;2023-08-07T02:36:23;94828.38;;;16.30;90.61
20027;BME280;10174;42.688;23.344;2023-08-07T02:38:48;94839.75;;;16.32;90.29
20027;BME280;10174;42.688;23.344;2023-08-07T02:41:14;94854.75;;;16.38;90.83
20027;BME280;10174;42.688;23.344;2023-08-07T02:43:39;94853.78;;;16.34;91.35
20027;BME280;10174;42.688;23.344;2023-08-07T02:46:04;94829.25;;;16.08;91.38
20027;BME280;10174;42.688;23.344;2023-08-07T02:48:30;94824.06;;;15.98;92.45
20027;BME280;10174;42.688;23.344;2023-08-07T02:50:55;94860.50;;;16.14;92.19
20027;BME280;10174;42.688;23.344;2023-08-07T02:53:20;94838.59;;;16.02;92.25
20027;BME280;10174;42.688;23.344;2023-08-07T02:55:46;94775.59;;;15.51;92.45
20027;BME280;10174;42.688;23.344;2023-08-07T02:58:11;94856.50;;;16.12;92.00
20027;BME280;10174;42.688;23.344;2023-08-07T03:00:36;94852.50;;;16.09;91.78
20027;BME280;10174;42.688;23.344;2023-08-07T03:03:02;94875.03;;;16.18;91.77
20027;BME280;10174;42.688;23.344;2023-08-07T03:05:27;94877.72;;;16.18;91.90
20027;BME280;10174;42.688;23.344;2023-08-07T03:07:53;94853.63;;;16.08;91.85
20027;BME280;10174;42.688;23.344;2023-08-07T03:10:18;94869.25;;;16.11;91.56
20027;BME280;10174;42.688;23.344;2023-08-07T03:12:44;94861.13;;;16.11;91.66
20027;BME280;10174;42.688;23.344;2023-08-07T03:15:10;94850.78;;;15.91;91.15
20027;BME280;10174;42.688;23.344;2023-08-07T03:17:35;94853.38;;;15.96;91.50
20027;BME280;10174;42.688;23.344;2023-08-07T03:20:00;94801.97;;;15.59;91.33
20027;BME280;10174;42.688;23.344;2023-08-07T03:22:26;94883.97;;;16.19;91.19
20027;BME280;10174;42.688;23.344;2023-08-07T03:24:51;94871.84;;;16.16;89.96
20027;BME280;10174;42.688;23.344;2023-08-07T03:27:17;94892.03;;;16.33;89.16
20027;BME280;10174;42.688;23.344;2023-08-07T03:29:42;94787.50;;;15.64;88.96
20027;BME280;10174;42.688;23.344;2023-08-07T03:32:08;94874.53;;;16.16;89.11
20027;BME280;10174;42.688;23.344;2023-08-07T03:34:34;94885.94;;;16.27;88.40
20027;BME280;10174;42.688;23.344;2023-08-07T03:36:59;94886.91;;;16.31;88.30
20027;BME280;10174;42.688;23.344;2023-08-07T03:39:25;94906.66;;;16.54;88.15
20027;BME280;10174;42.688;23.344;2023-08-07T03:41:50;94806.28;;;15.83;86.76
20027;BME280;10174;42.688;23.344;2023-08-07T03:44:16;94807.91;;;15.70;87.05
20027;BME280;10174;42.688;23.344;2023-08-07T03:46:41;94910.25;;;16.18;87.52
20027;BME280;10174;42.688;23.344;2023-08-07T03:49:07;94892.97;;;16.06;87.79
20027;BME280;10174;42.688;23.344;2023-08-07T03:51:32;94901.41;;;16.27;87.42
20027;BME280;10174;42.688;23.344;2023-08-07T03:53:58;94861.00;;;15.94;86.86
20027;BME280;10174;42.688;23.344;2023-08-07T03:56:23;94922.56;;;16.25;86.93
20027;BME280;10174;42.688;23.344;2023-08-07T03:58:48;94909.91;;;16.11;87.49
20027;BME280;10174;42.688;23.344;2023-08-07T04:01:15;94914.81;;;16.09;87.39
20027;BME280;10174;42.688;23.344;2023-08-07T04:03:41;94921.84;;;16.10;87.96
20027;BME280;10174;42.688;23.344;2023-08-07T04:06:06;94898.34;;;15.83;88.16
20027;BME280;10174;42.688;23.344;2023-08-07T04:08:32;94918.22;;;15.78;88.56
20027;BME280;10174;42.688;23.344;2023-08-07T04:11:04;94801.50;;;14.93;88.95
20027;BME280;10174;42.688;23.344;2023-08-07T04:13:30;94882.19;;;15.41;89.65
20027;BME280;10174;42.688;23.344;2023-08-07T04:15:56;94932.09;;;15.63;89.44
20027;BME280;10174;42.688;23.344;2023-08-07T04:18:21;94929.50;;;15.58;89.88
20027;BME280;10174;42.688;23.344;2023-08-07T04:20:51;94961.03;;;15.76;90.32
20027;BME280;10174;42.688;23.344;2023-08-07T04:23:17;94905.84;;;15.49;89.58
20027;BME280;10174;42.688;23.344;2023-08-07T04:25:43;94945.31;;;15.78;89.38
20027;BME280;10174;42.688;23.344;2023-08-07T04:28:08;94952.13;;;15.90;89.21
20027;BME280;10174;42.688;23.344;2023-08-07T04:30:34;94860.56;;;15.41;87.70
20027;BME280;10174;42.688;23.344;2023-08-07T04:32:59;94937.66;;;15.94;87.50
20027;BME280;10174;42.688;23.344;2023-08-07T04:35:25;94956.88;;;16.07;87.18
20027;BME280;10174;42.688;23.344;2023-08-07T04:37:50;94924.22;;;15.75;88.19
20027;BME280;10174;42.688;23.344;2023-08-07T04:40:15;94858.34;;;15.43;86.86
20027;BME280;10174;42.688;23.344;2023-08-07T04:42:41;94861.38;;;15.28;87.92
20027;BME280;10174;42.688;23.344;2023-08-07T04:45:06;94965.53;;;15.95;88.44
20027;BME280;10174;42.688;23.344;2023-08-07T04:47:32;94970.13;;;16.08;87.03
20027;BME280;10174;42.688;23.344;2023-08-07T04:49:57;94956.72;;;15.89;87.18
20027;BME280;10174;42.688;23.344;2023-08-07T04:52:23;94961.72;;;15.96;87.04
20027;BME280;10174;42.688;23.344;2023-08-07T04:54:48;94947.94;;;16.06;86.93
20027;BME280;10174;42.688;23.344;2023-08-07T04:57:13;94907.91;;;15.80;86.48
20027;BME280;10174;42.688;23.344;2023-08-07T04:59:39;94951.50;;;16.15;85.63
20027;BME280;10174;42.688;23.344;2023-08-07T05:02:05;94839.91;;;15.45;85.89
20027;BME280;10174;42.688;23.344;2023-08-07T05:04:30;94961.50;;;16.29;85.18
20027;BME280;10174;42.688;23.344;2023-08-07T05:06:55;94940.00;;;16.10;85.76
20027;BME280;10174;42.688;23.344;2023-08-07T05:09:21;94946.59;;;16.17;85.75
20027;BME280;10174;42.688;23.344;2023-08-07T05:11:46;94843.44;;;15.68;84.74
20027;BME280;10174;42.688;23.344;2023-08-07T05:14:12;94851.22;;;15.84;84.47
20027;BME280;10174;42.688;23.344;2023-08-07T05:16:37;94846.22;;;15.77;84.16
20027;BME280;10174;42.688;23.344;2023-08-07T05:19:02;94845.22;;;15.73;84.37
20027;BME280;10174;42.688;23.344;2023-08-07T05:21:28;94938.22;;;16.05;84.94
20027;BME280;10174;42.688;23.344;2023-08-07T05:23:53;94929.84;;;16.15;83.53
20027;BME280;10174;42.688;23.344;2023-08-07T05:26:21;94918.69;;;16.17;83.54
20027;BME280;10174;42.688;23.344;2023-08-07T05:28:46;94932.06;;;16.36;83.12
20027;BME280;10174;42.688;23.344;2023-08-07T05:31:12;94930.34;;;16.40;82.22
20027;BME280;10174;42.688;23.344;2023-08-07T05:33:37;94940.50;;;16.57;82.44
20027;BME280;10174;42.688;23.344;2023-08-07T05:36:02;94931.19;;;16.49;82.27
20027;BME280;10174;42.688;23.344;2023-08-07T05:38:28;94892.03;;;16.33;81.71
20027;BME280;10174;42.688;23.344;2023-08-07T05:40:53;94930.38;;;16.49;81.56
20027;BME280;10174;42.688;23.344;2023-08-07T05:43:19;94950.66;;;16.51;81.04
20027;BME280;10174;42.688;23.344;2023-08-07T05:45:44;94953.59;;;16.64;81.22
20027;BME280;10174;42.688;23.344;2023-08-07T05:48:11;94950.09;;;16.63;81.37
20027;BME280;10174;42.688;23.344;2023-08-07T05:50:37;94607.72;;;14.52;80.70
20027;BME280;10174;42.688;23.344;2023-08-07T05:53:02;94861.25;;;16.06;80.71
20027;BME280;10174;42.688;23.344;2023-08-07T05:55:28;94938.50;;;16.71;80.59
20027;BME280;10174;42.688;23.344;2023-08-07T05:57:53;94938.94;;;16.65;80.88
20027;BME280;10174;42.688;23.344;2023-08-07T06:00:19;94857.41;;;16.30;80.39
20027;BME280;10174;42.688;23.344;2023-08-07T06:02:45;94958.56;;;16.93;78.81
20027;BME280;10174;42.688;23.344;2023-08-07T06:05:10;94925.78;;;16.81;78.46
20027;BME280;10174;42.688;23.344;2023-08-07T06:07:38;94921.53;;;16.88;78.80
20027;BME280;10174;42.688;23.344;2023-08-07T06:10:04;94929.72;;;16.97;78.44
20027;BME280;10174;42.688;23.344;2023-08-07T06:12:29;94940.81;;;17.18;78.32
20027;BME280;10174;42.688;23.344;2023-08-07T06:14:55;94957.63;;;17.29;77.60
20027;BME280;10174;42.688;23.344;2023-08-07T06:17:20;94901.81;;;17.05;76.19
20027;BME280;10174;42.688;23.344;2023-08-07T06:19:46;94903.94;;;17.17;75.85
20027;BME280;10174;42.688;23.344;2023-08-07T06:22:11;94938.34;;;17.48;75.14
20027;BME280;10174;42.688;23.344;2023-08-07T06:24:36;94927.97;;;17.59;75.00
20027;BME280;10174;42.688;23.344;2023-08-07T06:27:02;94941.44;;;17.73;74.77
20027;BME280;10174;42.688;23.344;2023-08-07T06:29:28;94940.19;;;17.96;74.17
20027;BME280;10174;42.688;23.344;2023-08-07T06:31:53;94909.66;;;17.82;71.91
20027;BME280;10174;42.688;23.344;2023-08-07T06:34:18;94854.50;;;17.55;71.38
20027;BME280;10174;42.688;23.344;2023-08-07T06:36:44;94932.75;;;18.84;68.12
20027;BME280;10174;42.688;23.344;2023-08-07T06:39:10;94892.03;;;20.07;64.24
20027;BME280;10174;42.688;23.344;2023-08-07T06:41:37;94917.38;;;20.08;61.83
20027;BME280;10174;42.688;23.344;2023-08-07T06:44:03;94872.16;;;19.05;63.25
20027;BME280;10174;42.688;23.344;2023-08-07T06:46:29;94921.44;;;19.51;65.00
20027;BME280;10174;42.688;23.344;2023-08-07T06:48:54;94915.59;;;19.61;61.76
20027;BME280;10174;42.688;23.344;2023-08-07T06:51:20;94948.00;;;19.54;62.62
20027;BME280;10174;42.688;23.344;2023-08-07T06:53:45;94951.59;;;19.46;61.84
20027;BME280;10174;42.688;23.344;2023-08-07T06:56:10;94920.91;;;19.28;62.48
20027;BME280;10174;42.688;23.344;2023-08-07T06:58:36;94846.16;;;18.78;58.95
20027;BME280;10174;42.688;23.344;2023-08-07T07:01:01;94936.25;;;19.32;59.29
20027;BME280;10174;42.688;23.344;2023-08-07T07:03:26;94948.59;;;19.68;59.78
20027;BME280;10174;42.688;23.344;2023-08-07T07:05:52;94937.47;;;19.44;60.05
20027;BME280;10174;42.688;23.344;2023-08-07T07:08:17;94835.59;;;18.29;61.12
20027;BME280;10174;42.688;23.344;2023-08-07T07:10:43;94943.25;;;19.12;61.54
20027;BME280;10174;42.688;23.344;2023-08-07T07:13:08;94841.22;;;18.80;62.51
20027;BME280;10174;42.688;23.344;2023-08-07T07:15:34;94948.94;;;19.58;61.92
20027;BME280;10174;42.688;23.344;2023-08-07T07:18:01;94940.97;;;19.83;62.04
20027;BME280;10174;42.688;23.344;2023-08-07T07:20:26;94946.88;;;19.85;59.93
20027;BME280;10174;42.688;23.344;2023-08-07T07:22:52;94930.63;;;19.67;58.91
20027;BME280;10174;42.688;23.344;2023-08-07T07:25:17;94894.00;;;19.26;59.91
20027;BME280;10174;42.688;23.344;2023-08-07T07:27:43;94933.91;;;19.82;58.80
20027;BME280;10174;42.688;23.344;2023-08-07T07:30:09;94904.88;;;19.86;59.48
20027;BME280;10174;42.688;23.344;2023-08-07T07:32:34;94930.59;;;20.39;57.79
20027;BME280;10174;42.688;23.344;2023-08-07T07:35:00;94844.66;;;20.00;57.30
20027;BME280;10174;42.688;23.344;2023-08-07T07:37:25;94876.44;;;20.29;56.02
20027;BME280;10174;42.688;23.344;2023-08-07T07:39:51;94931.69;;;20.59;56.25
20027;BME280;10174;42.688;23.344;2023-08-07T07:42:16;94939.06;;;20.80;55.95
20027;BME280;10174;42.688;23.344;2023-08-07T07:44:41;94940.53;;;20.90;55.23
20027;BME280;10174;42.688;23.344;2023-08-07T07:47:08;94851.28;;;20.57;54.06
20027;BME280;10174;42.688;23.344;2023-08-07T07:49:33;94887.41;;;20.87;53.96
20027;BME280;10174;42.688;23.344;2023-08-07T07:51:59;94910.53;;;20.90;53.68
20027;BME280;10174;42.688;23.344;2023-08-07T07:54:25;94941.41;;;21.15;53.54
20027;BME280;10174;42.688;23.344;2023-08-07T07:56:50;94847.72;;;20.77;53.68
20027;BME280;10174;42.688;23.344;2023-08-07T07:59:16;94931.28;;;21.40;52.68
20027;BME280;10174;42.688;23.344;2023-08-07T08:01:41;94922.06;;;21.45;52.80
20027;BME280;10174;42.688;23.344;2023-08-07T08:04:07;94922.63;;;21.26;53.77
20027;BME280;10174;42.688;23.344;2023-08-07T08:06:32;94834.53;;;21.04;51.75
20027;BME280;10174;42.688;23.344;2023-08-07T08:08:58;94925.81;;;21.77;51.68
20027;BME280;10174;42.688;23.344;2023-08-07T08:11:24;94921.97;;;21.53;51.98
20027;BME280;10174;42.688;23.344;2023-08-07T08:13:50;94903.19;;;21.64;51.05
20027;BME280;10174;42.688;23.344;2023-08-07T08:16:15;94926.69;;;21.94;49.32
20027;BME280;10174;42.688;23.344;2023-08-07T08:18:40;94926.63;;;22.18;48.85
20027;BME280;10174;42.688;23.344;2023-08-07T08:21:06;94929.56;;;22.26;47.74
20027;BME280;10174;42.688;23.344;2023-08-07T08:23:32;94824.47;;;21.45;47.80
20027;BME280;10174;42.688;23.344;2023-08-07T08:25:57;94907.38;;;22.15;48.20
20027;BME280;10174;42.688;23.344;2023-08-07T08:28:22;94918.63;;;22.38;47.39
20027;BME280;10174;42.688;23.344;2023-08-07T08:30:48;94868.06;;;22.48;46.82
20027;BME280;10174;42.688;23.344;2023-08-07T08:33:13;94910.09;;;23.00;45.78
20027;BME280;10174;42.688;23.344;2023-08-07T08:35:40;94874.59;;;23.19;44.51
20027;BME280;10174;42.688;23.344;2023-08-07T08:38:06;94853.56;;;23.94;43.82
20027;BME280;10174;42.688;23.344;2023-08-07T08:40:31;94876.69;;;25.68;40.62
20027;BME280;10174;42.688;23.344;2023-08-07T08:43:00;94912.31;;;27.61;36.46
20027;BME280;10174;42.688;23.344;2023-08-07T08:45:26;94842.25;;;27.76;35.82
20027;BME280;10174;42.688;23.344;2023-08-07T08:47:54;94890.53;;;29.10;34.64
20027;BME280;10174;42.688;23.344;2023-08-07T08:50:23;94821.06;;;27.87;34.55
20027;BME280;10174;42.688;23.344;2023-08-07T08:52:51;94880.78;;;28.24;34.62
20027;BME280;10174;42.688;23.344;2023-08-07T08:55:16;94882.25;;;29.17;33.10
20027;BME280;10174;42.688;23.344;2023-08-07T08:57:43;94898.81;;;29.03;34.07
20027;BME280;10174;42.688;23.344;2023-08-07T09:00:09;94890.97;;;29.52;32.85
20027;BME280;10174;42.688;23.344;2023-08-07T09:02:46;94880.50;;;30.38;31.58
20027;BME280;10174;42.688;23.344;2023-08-07T09:05:14;94881.09;;;30.86;30.74
20027;BME280;10174;42.688;23.344;2023-08-07T09:07:40;94870.19;;;32.14;29.27
20027;BME280;10174;42.688;23.344;2023-08-07T09:10:06;94879.22;;;31.81;29.30
20027;BME280;10174;42.688;23.344;2023-08-07T09:12:33;94892.16;;;32.36;28.63
20027;BME280;10174;42.688;23.344;2023-08-07T09:15:02;94884.47;;;31.75;29.36
20027;BME280;10174;42.688;23.344;2023-08-07T09:17:29;94884.59;;;31.53;29.66
20027;BME280;10174;42.688;23.344;2023-08-07T09:19:55;94876.59;;;31.66;29.18
20027;BME280;10174;42.688;23.344;2023-08-07T09:22:21;94880.09;;;32.16;28.97
20027;BME280;10174;42.688;23.344;2023-08-07T09:24:47;94864.94;;;33.64;27.58
20027;BME280;10174;42.688;23.344;2023-08-07T09:27:13;94853.00;;;32.58;28.58
20027;BME280;10174;42.688;23.344;2023-08-07T09:29:43;94863.53;;;32.74;28.22
20027;BME280;10174;42.688;23.344;2023-08-07T09:32:11;94851.72;;;32.66;29.00
20027;BME280;10174;42.688;23.344;2023-08-07T09:34:41;94853.09;;;33.36;27.71
20027;BME280;10174;42.688;23.344;2023-08-07T09:37:10;94863.59;;;34.59;26.22
20027;BME280;10174;42.688;23.344;2023-08-07T09:39:36;94853.19;;;33.29;27.18
20027;BME280;10174;42.688;23.344;2023-08-07T09:42:05;94844.44;;;32.76;28.16
20027;BME280;10174;42.688;23.344;2023-08-07T09:44:36;94804.38;;;31.73;28.49
20027;BME280;10174;42.688;23.344;2023-08-07T09:47:15;94834.97;;;31.66;28.74
20027;BME280;10174;42.688;23.344;2023-08-07T09:49:42;94836.63;;;32.67;28.87
20027;BME280;10174;42.688;23.344;2023-08-07T09:52:09;94751.03;;;33.06;26.53
20027;BME280;10174;42.688;23.344;2023-08-07T09:54:35;94824.53;;;33.79;26.92
20027;BME280;10174;42.688;23.344;2023-08-07T09:57:02;94842.19;;;34.13;26.84
20027;BME280;10174;42.688;23.344;2023-08-07T09:59:28;94844.88;;;33.52;26.71
20027;BME280;10174;42.688;23.344;2023-08-07T10:01:54;94834.53;;;32.44;28.02
20027;BME280;10174;42.688;23.344;2023-08-07T10:04:23;94854.56;;;32.28;28.10
20027;BME280;10174;42.688;23.344;2023-08-07T10:06:48;94840.16;;;31.64;28.56
20027;BME280;10174;42.688;23.344;2023-08-07T10:09:14;94851.25;;;31.12;29.72
20027;BME280;10174;42.688;23.344;2023-08-07T10:11:41;94839.03;;;30.24;31.48
20027;BME280;10174;42.688;23.344;2023-08-07T10:14:12;94819.84;;;30.69;30.22
20027;BME280;10174;42.688;23.344;2023-08-07T10:16:38;94850.31;;;31.78;29.10
20027;BME280;10174;42.688;23.344;2023-08-07T10:19:06;94842.19;;;31.56;29.19
20027;BME280;10174;42.688;23.344;2023-08-07T10:21:36;94833.19;;;31.41;29.13
20027;BME280;10174;42.688;23.344;2023-08-07T10:24:08;94834.78;;;32.22;28.41
20027;BME280;10174;42.688;23.344;2023-08-07T10:26:35;94845.41;;;32.62;28.07
20027;BME280;10174;42.688;23.344;2023-08-07T10:29:03;94768.47;;;31.90;28.76
20027;BME280;10174;42.688;23.344;2023-08-07T10:31:31;94838.88;;;33.03;27.47
20027;BME280;10174;42.688;23.344;2023-08-07T10:33:58;94863.09;;;32.06;29.21
20027;BME280;10174;42.688;23.344;2023-08-07T10:36:32;94804.63;;;30.22;30.84
20027;BME280;10174;42.688;23.344;2023-08-07T10:39:07;94845.41;;;30.95;29.80
20027;BME280;10174;42.688;23.344;2023-08-07T10:41:41;94832.47;;;30.78;30.46
20027;BME280;10174;42.688;23.344;2023-08-07T10:44:26;94824.59;;;31.25;29.46
20027;BME280;10174;42.688;23.344;2023-08-07T10:46:55;94832.38;;;31.44;29.32
20027;BME280;10174;42.688;23.344;2023-08-07T10:49:38;94838.94;;;33.27;27.60
20027;BME280;10174;42.688;23.344;2023-08-07T10:52:07;94826.88;;;32.21;29.57
20027;BME280;10174;42.688;23.344;2023-08-07T10:54:37;94823.25;;;32.55;27.90
20027;BME280;10174;42.688;23.344;2023-08-07T10:57:10;94799.63;;;32.97;26.91
20027;BME280;10174;42.688;23.344;2023-08-07T10:59:37;94830.38;;;32.25;28.09
20027;BME280;10174;42.688;23.344;2023-08-07T11:02:07;94808.16;;;31.03;30.57
20027;BME280;10174;42.688;23.344;2023-08-07T11:04:36;94808.53;;;31.54;29.69
20027;BME280;10174;42.688;23.344;2023-08-07T11:07:02;94815.91;;;32.06;28.84
20027;BME280;10174;42.688;23.344;2023-08-07T11:09:28;94795.06;;;32.25;27.85
20027;BME280;10174;42.688;23.344;2023-08-07T11:11:53;94808.81;;;32.36;27.88
20027;BME280;10174;42.688;23.344;2023-08-07T11:14:19;94798.56;;;33.62;26.90
20027;BME280;10174;42.688;23.344;2023-08-07T11:16:46;94764.28;;;31.74;27.70
20027;BME280;10174;42.688;23.344;2023-08-07T11:19:13;94795.34;;;31.20;29.09
20027;BME280;10174;42.688;23.344;2023-08-07T11:21:40;94774.91;;;31.83;29.37
20027;BME280;10174;42.688;23.344;2023-08-07T11:24:05;94781.78;;;32.06;28.35
20027;BME280;10174;42.688;23.344;2023-08-07T11:26:31;94752.94;;;32.58;27.83
20027;BME280;10174;42.688;23.344;2023-08-07T11:28:57;94771.97;;;32.59;27.89
20027;BME280;10174;42.688;23.344;2023-08-07T11:31:24;94777.91;;;31.96;28.89
20027;BME280;10174;42.688;23.344;2023-08-07T11:33:51;94752.28;;;31.47;29.91
20027;BME280;10174;42.688;23.344;2023-08-07T11:36:16;94769.56;;;29.93;31.51
20027;BME280;10174;42.688;23.344;2023-08-07T11:38:43;94785.84;;;29.59;32.03
20027;BME280;10174;42.688;23.344;2023-08-07T11:41:10;94768.47;;;28.61;33.45
20027;BME280;10174;42.688;23.344;2023-08-07T11:43:36;94768.41;;;28.29;34.34
20027;BME280;10174;42.688;23.344;2023-08-07T11:46:06;94788.34;;;27.89;34.98
20027;BME280;10174;42.688;23.344;2023-08-07T11:48:35;94772.97;;;27.26;35.64
20027;BME280;10174;42.688;23.344;2023-08-07T11:51:02;94748.75;;;26.94;36.15
20027;BME280;10174;42.688;23.344;2023-08-07T11:53:32;94788.25;;;27.12;37.02
20027;BME280;10174;42.688;23.344;2023-08-07T11:56:03;94784.69;;;27.12;37.01
20027;BME280;10174;42.688;23.344;2023-08-07T11:58:37;94784.53;;;27.35;37.27
20027;BME280;10174;42.688;23.344;2023-08-07T12:01:04;94771.00;;;27.23;36.44
20027;BME280;10174;42.688;23.344;2023-08-07T12:03:35;94790.72;;;27.28;36.43
20027;BME280;10174;42.688;23.344;2023-08-07T12:06:05;94778.69;;;27.51;37.00
20027;BME280;10174;42.688;23.344;2023-08-07T12:11:04;94763.22;;;27.32;36.62
20027;BME280;10174;42.688;23.344;2023-08-07T12:13:30;94751.50;;;27.46;36.92
20027;BME280;10174;42.688;23.344;2023-08-07T12:15:57;94764.06;;;27.43;37.31
20027;BME280;10174;42.688;23.344;2023-08-07T12:18:23;94753.03;;;27.43;37.33
20027;BME280;10174;42.688;23.344;2023-08-07T12:20:50;94756.19;;;27.42;37.52
20027;BME280;10174;42.688;23.344;2023-08-07T12:23:16;94733.25;;;27.30;36.84
20027;BME280;10174;42.688;23.344;2023-08-07T12:25:43;94729.78;;;27.37;37.59
20027;BME280;10174;42.688;23.344;2023-08-07T12:28:08;94658.25;;;26.96;37.18
20027;BME280;10174;42.688;23.344;2023-08-07T12:30:34;94742.13;;;27.61;37.30
20027;BME280;10174;42.688;23.344;2023-08-07T12:33:00;94748.09;;;27.81;37.67
20027;BME280;10174;42.688;23.344;2023-08-07T12:35:25;94744.56;;;27.81;37.12
20027;BME280;10174;42.688;23.344;2023-08-07T12:37:50;94752.38;;;27.68;37.76
20027;BME280;10174;42.688;23.344;2023-08-07T12:40:16;94746.81;;;27.53;38.00
20027;BME280;10174;42.688;23.344;2023-08-07T12:42:45;94758.19;;;27.48;38.23
20027;BME280;10174;42.688;23.344;2023-08-07T12:45:11;94757.72;;;27.35;37.84
20027;BME280;10174;42.688;23.344;2023-08-07T12:47:36;94732.59;;;27.51;38.10
20027;BME280;10174;42.688;23.344;2023-08-07T12:50:02;94727.06;;;27.51;38.52
20027;BME280;10174;42.688;23.344;2023-08-07T12:52:28;94752.22;;;27.35;38.20